This is the latest recevied weather packets stored in our database for station/object OE3PDB-3. If no packets are shown the sender has not sent any weather packets the latest 10 day(s).
| Time | Temp. | Humidity | Pressure | Rain* | Wind** | Luminosity | Snow |
|---|---|---|---|---|---|---|---|
| 1777699849 | 12.22° C | 59% | 1024.6 hPa | 0 mm | - | - | - |
| 1777699249 | 11.67° C | 61% | 1024.6 hPa | 0 mm | - | - | - |
| 1777698649 | 9.44° C | 64% | 1024.7 hPa | 0 mm | - | - | - |
| 1777698049 | 8.89° C | 64% | 1024.6 hPa | 0 mm | - | - | - |
| 1777697449 | 8.89° C | 64% | 1024.4 hPa | 0 mm | - | - | - |
| 1777696850 | 8.33° C | 64% | 1024.4 hPa | 0 mm | - | - | - |
| 1777696249 | 8.33° C | 64% | 1024.4 hPa | 0 mm | - | - | - |
| 1777695649 | 8.33° C | 64% | 1024.4 hPa | 0 mm | - | - | - |
| 1777695049 | 8.33° C | 64% | 1024.3 hPa | 0 mm | - | - | - |
| 1777694449 | 8.33° C | 63% | 1024.3 hPa | 0 mm | - | - | - |
| 1777693850 | 8.33° C | 63% | 1024.2 hPa | 0 mm | - | - | - |
| 1777693250 | 8.33° C | 63% | 1024.2 hPa | 0 mm | - | - | - |
| 1777692650 | 8.33° C | 63% | 1024.1 hPa | 0 mm | - | - | - |
| 1777692050 | 8.89° C | 62% | 1024.2 hPa | 0 mm | - | - | - |
| 1777691449 | 8.89° C | 62% | 1024.2 hPa | 0 mm | - | - | - |
| 1777690850 | 8.89° C | 62% | 1024.2 hPa | 0 mm | - | - | - |
| 1777690250 | 8.89° C | 63% | 1024.1 hPa | 0 mm | - | - | - |
| 1777689650 | 8.33° C | 62% | 1024.2 hPa | 0 mm | - | - | - |
| 1777689050 | 8.89° C | 60% | 1024.3 hPa | 0 mm | - | - | - |
| 1777688450 | 8.89° C | 60% | 1024.3 hPa | 0 mm | - | - | - |
| 1777687850 | 8.89° C | 60% | 1024.2 hPa | 0 mm | - | - | - |
| 1777687250 | 9.44° C | 60% | 1024.2 hPa | 0 mm | - | - | - |
| 1777686650 | 9.44° C | 60% | 1024.2 hPa | 0 mm | - | - | - |
| 1777686050 | 9.44° C | 60% | 1024.2 hPa | 0 mm | - | - | - |
| 1777685450 | 9.44° C | 60% | 1024.2 hPa | 0 mm | - | - | - |
* Rain latest hour (hover to see other rain measurements)
** Current wind speed in m/s (hover to see current wind gust speed)